Time;durP1;ratioP1;P1;durP2;ratioP2;P2;SDS_P1;SDS_P2;PMS_P1;PMS_P2;Temp;Humidity;BMP_temperature;BMP_pressure;BME280_temperature;BME280_humidity;BME280_pressure;Samples;Min_cycle;Max_cycle;Signal;HPM_P1;HPM_P2
2021/05/22 00:01:23;;;;;;;1.00;0.50;;;9.00;85.10;;;7.53;82.95;95422.41;4983106;28;20410;-71
2021/05/22 00:03:51;;;;;;;3.67;0.43;;;8.90;85.50;;;7.50;83.30;95410.50;5008535;28;20748;-71
2021/05/22 00:06:17;;;;;;;1.50;0.60;;;8.90;85.60;;;7.48;82.81;95419.53;4997417;28;20501;-71
2021/05/22 00:08:42;;;;;;;0.50;0.40;;;8.80;85.60;;;7.45;83.11;95436.38;4991875;28;20049;-71
2021/05/22 00:11:08;;;;;;;1.88;0.70;;;8.80;85.80;;;7.41;82.97;95440.38;5007701;28;20034;-71
2021/05/22 00:13:34;;;;;;;1.58;0.60;;;8.70;86.40;;;7.42;82.78;95443.81;4991802;28;20058;-71
2021/05/22 00:15:59;;;;;;;2.90;0.52;;;8.80;86.00;;;7.38;82.98;95436.31;5008221;28;20034;-71
2021/05/22 00:18:25;;;;;;;1.20;0.57;;;8.70;86.40;;;7.36;83.72;95438.31;4984530;28;20045;-71
2021/05/22 00:20:51;;;;;;;0.68;0.40;;;8.70;86.20;;;7.34;82.98;95440.31;5004247;28;20037;-71
2021/05/22 00:23:17;;;;;;;1.27;0.50;;;8.60;86.30;;;7.33;83.45;95438.69;4992255;28;20030;-71
2021/05/22 00:25:42;;;;;;;1.25;0.40;;;8.60;86.20;;;7.31;83.49;95445.91;4993757;28;20358;-70
2021/05/22 00:28:08;;;;;;;0.75;0.50;;;8.60;86.60;;;7.30;83.37;95444.31;4990289;28;20027;-71
2021/05/22 00:30:34;;;;;;;0.73;0.45;;;8.70;86.50;;;7.30;83.42;95449.53;4996520;28;20054;-71
2021/05/22 00:32:59;;;;;;;1.30;0.52;;;8.70;86.00;;;7.29;83.42;95442.69;4960448;28;20061;-71
2021/05/22 00:35:25;;;;;;;1.40;0.47;;;8.60;85.90;;;7.28;83.37;95435.03;5004046;28;20030;-70
2021/05/22 00:37:51;;;;;;;2.25;0.50;;;8.60;86.00;;;7.25;83.29;95420.50;5007746;28;20369;-71
2021/05/22 00:40:17;;;;;;;2.67;0.30;;;8.60;86.10;;;7.25;83.72;95414.47;5010494;28;20065;-71
2021/05/22 00:42:44;;;;;;;1.70;0.50;;;8.60;85.80;;;7.21;83.90;95406.16;5010480;28;20509;-71
2021/05/22 00:45:21;;;;;;;1.77;0.60;;;8.60;85.90;;;7.20;84.02;95416.81;4986965;28;20034;-71
2021/05/22 00:47:52;;;;;;;1.00;0.32;;;8.60;86.10;;;7.15;84.43;95419.97;5009148;28;20041;-71
2021/05/22 00:50:29;;;;;;;2.20;0.57;;;8.40;86.00;;;7.13;84.69;95423.78;5009750;28;20080;-72
2021/05/22 00:52:55;;;;;;;2.33;0.40;;;8.40;86.30;;;7.10;83.63;95427.56;4982554;28;20164;-71
2021/05/22 00:55:21;;;;;;;1.42;0.50;;;8.40;86.20;;;7.10;83.77;95442.44;4995519;28;20029;-71
2021/05/22 00:57:47;;;;;;;0.50;0.40;;;8.40;86.60;;;7.10;83.44;95442.44;4989779;28;20030;-71
2021/05/22 01:00:18;;;;;;;3.38;0.55;;;8.50;86.60;;;7.08;84.43;95429.56;5005223;28;20532;-71
2021/05/22 01:02:44;;;;;;;0.90;0.30;;;8.40;86.50;;;7.06;83.25;95439.41;4990281;28;20045;-71
2021/05/22 01:05:10;;;;;;;0.90;0.38;;;8.40;86.60;;;7.04;84.11;95416.03;4977801;28;20022;-71
2021/05/22 01:07:36;;;;;;;2.83;0.40;;;8.40;86.60;;;7.05;83.36;95419.47;5008962;28;20129;-72
2021/05/22 01:10:04;;;;;;;1.08;0.50;;;8.40;86.90;;;7.04;84.15;95418.66;4991562;28;20406;-71
2021/05/22 01:12:39;;;;;;;0.68;0.30;;;8.40;87.00;;;7.04;84.40;95402.97;4965186;28;20478;-72
2021/05/22 01:15:16;;;;;;;1.60;0.40;;;8.40;86.50;;;7.03;84.55;95343.03;4989359;28;20038;-71
2021/05/22 01:17:47;;;;;;;0.65;0.30;;;8.40;86.40;;;7.04;85.02;95349.88;4976562;28;20548;-72
2021/05/22 01:20:39;;;;;;;2.15;0.60;;;8.50;86.60;;;7.03;85.42;95395.31;5006108;28;20042;-71
2021/05/22 01:23:21;;;;;;;1.77;0.43;;;8.40;86.60;;;7.00;84.14;95409.53;5008018;28;20042;-71
2021/05/22 01:25:47;;;;;;;1.30;0.40;;;8.40;86.30;;;6.98;83.79;95410.72;4983886;28;20054;-71
2021/05/22 01:28:13;;;;;;;0.93;0.30;;;8.30;86.60;;;6.94;84.49;95417.31;4984695;28;20101;-70
2021/05/22 01:30:39;;;;;;;1.40;0.60;;;8.30;86.90;;;6.94;83.97;95418.13;5007100;28;20034;-69
2021/05/22 01:33:07;;;;;;;2.03;0.40;;;8.30;87.10;;;6.93;84.08;95418.31;4991488;28;20038;-71
2021/05/22 01:35:33;;;;;;;0.50;0.40;;;8.30;87.00;;;6.90;84.06;95422.09;4999010;28;20077;-71
2021/05/22 01:37:59;;;;;;;1.08;0.43;;;8.20;86.90;;;6.89;84.08;95414.44;4959429;28;20058;-71
2021/05/22 01:40:25;;;;;;;1.70;0.35;;;8.20;86.20;;;6.87;84.27;95408.59;5006886;28;20084;-71
2021/05/22 01:42:51;;;;;;;0.20;0.20;;;8.20;85.70;;;6.85;83.93;95394.91;4980640;28;21079;-71
2021/05/22 01:45:24;;;;;;;0.63;0.32;;;8.20;86.00;;;6.85;83.97;95387.06;4971749;28;20052;-71
2021/05/22 01:47:50;;;;;;;0.93;0.40;;;8.20;85.70;;;6.86;83.41;95399.13;5011135;28;20038;-71
2021/05/22 01:50:17;;;;;;;0.60;0.25;;;8.20;85.50;;;6.87;83.65;95408.59;5005791;28;20165;-71
2021/05/22 01:52:45;;;;;;;0.80;0.20;;;8.30;86.00;;;6.87;84.03;95421.66;4993207;28;20441;-71
2021/05/22 01:55:11;;;;;;;0.55;0.30;;;8.30;85.50;;;6.86;84.20;95415.63;4987883;28;20034;-70
2021/05/22 01:57:38;;;;;;;0.57;0.30;;;8.20;85.40;;;6.87;83.93;95411.19;5000691;28;20029;-71
2021/05/22 02:00:05;;;;;;;0.20;0.20;;;8.30;85.80;;;6.88;83.71;95418.06;4989031;28;20536;-71
2021/05/22 02:02:31;;;;;;;0.25;0.20;;;8.30;85.60;;;6.87;83.80;95424.28;5002605;28;20527;-71
2021/05/22 02:04:57;;;;;;;0.75;0.30;;;8.20;85.70;;;6.87;83.13;95432.13;4991345;28;20034;-71
2021/05/22 02:07:23;;;;;;;1.00;0.47;;;8.20;85.70;;;6.85;83.81;95423.66;4993749;28;20033;-71
2021/05/22 02:09:49;;;;;;;2.72;0.47;;;8.30;85.30;;;6.85;83.26;95427.06;5009005;28;20445;-71
2021/05/22 02:12:16;;;;;;;0.65;0.25;;;8.30;85.20;;;6.85;83.22;95423.66;4974655;28;20117;-71
2021/05/22 02:14:42;;;;;;;0.80;0.30;;;8.20;85.00;;;6.89;83.39;95422.28;4984047;28;20044;-71
2021/05/22 02:17:08;;;;;;;0.30;0.20;;;8.40;85.10;;;6.93;83.14;95420.91;4970824;28;20038;-71
2021/05/22 02:19:35;;;;;;;0.60;0.30;;;8.50;84.80;;;6.93;83.57;95431.38;4991175;28;20109;-71
2021/05/22 02:22:03;;;;;;;0.82;0.35;;;8.40;84.60;;;6.93;82.99;95434.81;5008363;28;20034;-71
2021/05/22 02:24:29;;;;;;;0.38;0.30;;;8.40;84.60;;;6.95;82.66;95434.63;5002837;28;20035;-72
2021/05/22 02:26:59;;;;;;;0.47;0.20;;;8.40;84.50;;;6.96;83.18;95454.53;4957521;28;20037;-71
2021/05/22 02:29:25;;;;;;;0.93;0.20;;;8.50;84.30;;;6.99;82.71;95467.25;4979608;28;20113;-71
2021/05/22 02:31:51;;;;;;;1.35;0.20;;;8.50;84.60;;;6.99;82.68;95467.25;4986253;28;20030;-71
2021/05/22 02:34:20;;;;;;;0.90;0.30;;;8.50;84.20;;;7.00;82.53;95474.09;5004777;28;20108;-71
2021/05/22 02:36:47;;;;;;;2.65;0.32;;;8.60;84.00;;;7.00;82.67;95463.63;4992025;28;20040;-71
2021/05/22 02:39:13;;;;;;;0.30;0.20;;;8.60;84.00;;;7.01;82.54;95457.41;4973633;28;20030;-71
2021/05/22 02:41:38;;;;;;;0.40;0.20;;;8.60;83.80;;;7.01;82.63;95424.22;4975329;28;20394;-71
2021/05/22 02:44:05;;;;;;;0.77;0.20;;;8.60;83.70;;;7.00;82.77;95427.84;4995591;28;20129;-71
2021/05/22 02:46:35;;;;;;;0.60;0.20;;;8.40;83.20;;;6.97;82.68;95422.16;5009920;28;20113;-70
2021/05/22 02:49:00;;;;;;;0.68;0.20;;;8.40;83.30;;;6.97;82.21;95422.97;5003030;28;20115;-71
2021/05/22 02:51:26;;;;;;;1.10;0.30;;;8.40;83.70;;;6.97;82.77;95438.66;4993405;28;20505;-71
2021/05/22 02:53:52;;;;;;;1.33;0.30;;;8.50;84.10;;;6.97;82.71;95443.91;4986498;28;20038;-71
2021/05/22 02:56:18;;;;;;;0.40;0.10;;;8.50;83.50;;;6.98;81.95;95444.72;4979441;28;20034;-70
2021/05/22 02:58:44;;;;;;;1.80;0.30;;;8.50;83.80;;;6.99;82.69;95435.88;4959705;28;20080;-71
2021/05/22 03:01:10;;;;;;;0.13;0.10;;;8.60;83.60;;;6.98;82.63;95429.03;4974643;28;20128;-71
2021/05/22 03:03:37;;;;;;;0.17;0.10;;;8.40;83.50;;;6.98;82.35;95434.25;4992025;28;20076;-71
2021/05/22 03:06:04;;;;;;;1.63;0.20;;;8.50;83.60;;;6.99;82.55;95446.31;5009484;28;20037;-71
2021/05/22 03:08:30;;;;;;;0.63;0.30;;;8.60;83.50;;;6.98;82.80;95445.53;5002980;28;20037;-71
2021/05/22 03:10:56;;;;;;;0.22;0.10;;;8.50;83.60;;;6.99;82.16;95431.44;4988962;28;20478;-71
2021/05/22 03:13:22;;;;;;;0.77;0.13;;;8.60;83.10;;;6.99;82.09;95426.22;5002467;28;20034;-71
2021/05/22 03:15:47;;;;;;;0.20;0.20;;;8.60;82.60;;;6.97;82.26;95438.66;4991306;28;20030;-71
2021/05/22 03:18:13;;;;;;;0.10;0.10;;;8.50;82.90;;;6.99;81.55;95428.03;5008974;28;20580;-71
2021/05/22 03:20:39;;;;;;;0.47;0.10;;;8.60;83.10;;;6.99;81.57;95423.59;5008053;28;20057;-72
2021/05/22 03:23:05;;;;;;;0.10;0.10;;;8.50;82.50;;;6.96;81.97;95431.00;4984529;28;20589;-72
2021/05/22 03:25:31;;;;;;;0.10;0.10;;;8.50;83.00;;;6.93;82.36;95426.16;4974939;28;20031;-72
2021/05/22 03:27:57;;;;;;;0.70;0.20;;;8.50;83.40;;;6.89;82.54;95440.59;4975490;28;20034;-72
2021/05/22 03:30:23;;;;;;;0.45;0.20;;;8.40;83.70;;;6.86;81.65;95435.72;5008666;28;20492;-73
2021/05/22 03:32:49;;;;;;;0.22;0.20;;;8.30;83.80;;;6.86;82.09;95426.06;5008713;28;20033;-74
2021/05/22 03:35:14;;;;;;;0.15;0.15;;;8.50;83.10;;;6.87;81.83;95427.69;4994216;28;20030;-70
2021/05/22 03:37:40;;;;;;;0.65;0.20;;;8.40;83.30;;;6.88;82.64;95424.09;4990129;28;20092;-73
2021/05/22 03:40:07;;;;;;;0.40;0.20;;;8.40;83.40;;;6.91;82.62;95433.38;5004419;28;20517;-68
2021/05/22 03:42:33;;;;;;;0.55;0.30;;;8.50;83.00;;;6.92;82.29;95440.22;4996443;28;20050;-68
2021/05/22 03:44:58;;;;;;;0.30;0.20;;;8.50;83.00;;;6.93;82.17;95434.81;4985402;28;20061;-71
2021/05/22 03:47:24;;;;;;;0.40;0.20;;;8.60;82.80;;;6.92;82.02;95416.69;4984028;28;20405;-71
2021/05/22 03:49:50;;;;;;;0.20;0.20;;;8.40;82.80;;;6.92;81.63;95419.31;5008434;28;20074;-72
2021/05/22 03:52:15;;;;;;;0.73;0.30;;;8.50;82.40;;;6.94;82.17;95414.69;5025010;28;20034;-71
2021/05/22 03:54:41;;;;;;;1.15;0.30;;;8.60;82.30;;;6.94;81.83;95406.84;4988085;28;20038;-71
2021/05/22 03:57:07;;;;;;;1.95;0.20;;;8.50;81.70;;;6.96;81.15;95423.16;4989077;28;20045;-71
2021/05/22 03:59:33;;;;;;;0.55;0.20;;;8.50;81.90;;;6.94;81.23;95417.31;4992122;28;20038;-72
2021/05/22 04:01:59;;;;;;;0.20;0.20;;;8.40;81.50;;;6.94;80.72;95422.53;4991591;28;20116;-72
2021/05/22 04:04:25;;;;;;;0.80;0.38;;;8.40;82.20;;;6.93;80.76;95415.69;5005006;28;20058;-71
2021/05/22 04:06:50;;;;;;;0.40;0.20;;;8.40;82.30;;;6.95;80.69;95419.75;4974222;28;20038;-71
2021/05/22 04:09:16;;;;;;;0.95;0.20;;;8.50;82.10;;;6.97;81.47;95420.38;5004758;28;20043;-71
2021/05/22 04:11:42;;;;;;;1.05;0.52;;;8.50;82.00;;;6.97;81.56;95424.78;4973549;28;20387;-71
2021/05/22 04:14:07;;;;;;;0.82;0.30;;;8.60;82.40;;;7.00;81.19;95427.03;4989600;28;20050;-71
2021/05/22 04:16:33;;;;;;;0.57;0.30;;;8.60;82.50;;;7.04;81.52;95436.16;4991411;28;20034;-71
2021/05/22 04:19:00;;;;;;;1.15;0.35;;;8.60;81.80;;;7.04;80.88;95430.94;4973722;28;20031;-72
2021/05/22 04:21:25;;;;;;;0.55;0.40;;;8.60;81.40;;;7.05;80.93;95440.38;4976876;28;20046;-72
2021/05/22 04:23:51;;;;;;;0.68;0.30;;;8.60;80.90;;;7.06;80.58;95442.00;5000579;28;20513;-72
2021/05/22 04:26:17;;;;;;;0.73;0.30;;;8.60;80.90;;;7.06;81.25;95444.63;4991275;28;20099;-71
2021/05/22 04:28:43;;;;;;;0.75;0.30;;;8.60;81.00;;;7.10;80.31;95443.25;5011623;28;20038;-71
2021/05/22 04:31:08;;;;;;;0.57;0.17;;;8.70;81.30;;;7.12;81.15;95441.28;4994144;28;20038;-70
2021/05/22 04:33:34;;;;;;;0.50;0.30;;;8.80;81.20;;;7.15;81.13;95451.34;4994328;28;20038;-71
2021/05/22 04:36:00;;;;;;;0.43;0.30;;;8.80;81.20;;;7.18;80.77;95463.25;5011668;28;20037;-71
2021/05/22 04:38:25;;;;;;;0.40;0.20;;;8.80;80.80;;;7.17;79.76;95457.22;5013623;28;20445;-71
2021/05/22 04:40:51;;;;;;;0.45;0.30;;;8.80;80.70;;;7.22;80.09;95467.13;5011333;28;20022;-71
2021/05/22 04:43:17;;;;;;;1.35;0.25;;;8.80;80.50;;;7.23;80.29;95468.75;4995971;28;20041;-71
2021/05/22 04:45:43;;;;;;;0.20;0.20;;;8.80;80.50;;;7.25;80.53;95474.63;4995584;28;20025;-71
2021/05/22 04:48:10;;;;;;;1.25;0.70;;;8.80;80.80;;;7.26;80.11;95469.22;4995794;28;20089;-71
2021/05/22 04:50:36;;;;;;;0.77;0.40;;;8.80;80.80;;;7.26;80.63;95461.38;5012082;28;20042;-71
2021/05/22 04:53:02;;;;;;;1.48;0.30;;;8.80;80.50;;;7.27;79.62;95460.38;4995377;28;20379;-71
2021/05/22 04:55:27;;;;;;;0.47;0.30;;;8.80;80.00;;;7.29;80.17;95462.78;5011128;28;20048;-71
2021/05/22 04:57:53;;;;;;;0.43;0.30;;;8.80;79.90;;;7.27;80.15;95473.44;4995584;28;20037;-71
2021/05/22 05:00:19;;;;;;;0.32;0.30;;;8.80;80.40;;;7.29;80.17;95479.31;4995248;28;20029;-71
2021/05/22 05:02:45;;;;;;;0.57;0.30;;;8.90;80.60;;;7.31;80.20;95466.03;5011289;28;20045;-70
2021/05/22 05:05:13;;;;;;;0.30;0.20;;;8.90;80.20;;;7.34;79.90;95476.94;4995372;28;20048;-71
2021/05/22 05:07:42;;;;;;;0.80;0.22;;;8.90;79.80;;;7.37;79.25;95488.84;5011765;28;20401;-71
2021/05/22 05:10:12;;;;;;;0.98;0.30;;;8.90;80.00;;;7.41;79.86;95477.00;4995292;28;20034;-71
2021/05/22 05:12:38;;;;;;;0.60;0.30;;;9.10;80.20;;;7.45;79.70;95482.69;4995890;28;20042;-71
2021/05/22 05:15:05;;;;;;;0.82;0.20;;;9.10;79.30;;;7.47;79.94;95494.59;4990948;28;20049;-71
2021/05/22 05:17:30;;;;;;;1.33;0.40;;;9.10;79.30;;;7.48;79.14;95492.81;5025555;28;20069;-71
2021/05/22 05:19:59;;;;;;;0.60;0.28;;;9.10;79.40;;;7.48;78.97;95492.81;4978287;28;20022;-71
2021/05/22 05:22:26;;;;;;;1.15;0.55;;;9.00;78.90;;;7.49;78.90;95497.03;4995138;28;20045;-71
2021/05/22 05:24:53;;;;;;;0.50;0.30;;;9.10;79.70;;;7.50;79.44;95496.03;4978453;28;20109;-72
2021/05/22 05:27:19;;;;;;;2.00;0.40;;;9.10;79.40;;;7.54;78.97;95497.28;4979112;28;20502;-71
2021/05/22 05:29:45;;;;;;;0.57;0.30;;;9.20;79.30;;;7.60;78.79;95491.31;4994541;28;20037;-71
2021/05/22 05:32:10;;;;;;;1.20;0.60;;;9.20;79.20;;;7.63;78.75;95491.75;4994461;28;20054;-71
2021/05/22 05:34:38;;;;;;;3.35;1.30;;;9.30;78.90;;;7.68;79.10;95480.72;4994431;28;20516;-71
2021/05/22 05:37:03;;;;;;;1.98;0.90;;;9.40;78.90;;;7.73;78.52;95486.22;4974466;28;20038;-71
2021/05/22 05:39:29;;;;;;;2.10;0.40;;;9.50;77.70;;;7.82;78.77;95487.72;4991016;28;20498;-72
2021/05/22 05:41:55;;;;;;;0.50;0.30;;;9.70;78.10;;;7.92;78.57;95496.09;4992063;28;20035;-72
2021/05/22 05:44:21;;;;;;;1.17;0.43;;;9.80;77.00;;;8.01;78.81;95501.19;4994819;28;20045;-70
2021/05/22 05:46:46;;;;;;;0.60;0.20;;;9.90;76.90;;;8.06;78.75;95490.94;4977834;28;20041;-71
2021/05/22 05:49:12;;;;;;;2.17;0.40;;;10.00;77.50;;;8.12;78.15;95483.13;5010366;28;20519;-71
2021/05/22 05:51:39;;;;;;;1.92;0.38;;;10.00;76.70;;;8.20;78.51;95495.31;5010788;28;20084;-71
2021/05/22 05:54:05;;;;;;;0.40;0.30;;;10.10;76.20;;;8.25;77.65;95495.56;4994344;28;20037;-71
2021/05/22 05:56:31;;;;;;;3.13;0.30;;;10.10;76.30;;;8.31;77.67;95479.06;4994474;28;20026;-72
2021/05/22 05:58:56;;;;;;;2.75;0.35;;;10.10;76.30;;;8.35;78.17;95490.81;5009813;28;20078;-71
2021/05/22 06:01:22;;;;;;;0.95;0.30;;;10.10;76.40;;;8.42;77.58;95481.22;4977122;28;20026;-71
2021/05/22 06:03:48;;;;;;;2.30;0.57;;;10.30;76.30;;;8.50;77.99;95488.13;4990619;28;20039;-71
2021/05/22 06:06:14;;;;;;;0.93;0.40;;;10.40;75.90;;;8.57;77.42;95488.97;4975185;28;20045;-71
2021/05/22 06:08:40;;;;;;;1.27;0.43;;;10.50;75.60;;;8.68;77.16;95479.78;4974883;28;20030;-72
2021/05/22 06:11:08;;;;;;;0.40;0.35;;;10.70;75.10;;;8.77;77.09;95475.97;5005811;28;20542;-71
2021/05/22 06:13:35;;;;;;;1.13;0.50;;;10.90;74.40;;;8.84;77.21;95474.22;4975312;28;20409;-72
2021/05/22 06:18:35;;;;;;;0.80;0.60;;;10.80;74.60;;;8.89;76.45;95477.06;5002363;28;20038;-71
2021/05/22 06:21:04;;;;;;;3.35;2.00;;;10.70;74.50;;;8.87;76.10;95465.97;5009350;28;20042;-70
2021/05/22 06:23:30;;;;;;;1.38;0.95;;;10.70;74.30;;;8.89;76.91;95484.94;4991228;28;20045;-71
2021/05/22 06:25:56;;;;;;;2.78;1.80;;;10.70;74.40;;;8.91;76.71;95480.31;4988296;28;20038;-70
2021/05/22 06:28:21;;;;;;;1.42;0.80;;;11.00;73.90;;;9.03;76.27;95484.00;4990599;28;20041;-72
2021/05/22 06:30:48;;;;;;;6.68;4.80;;;11.30;72.50;;;9.09;75.76;95491.13;4959891;28;20022;-71
2021/05/22 06:33:13;;;;;;;5.03;2.50;;;11.30;72.20;;;9.17;76.97;95485.69;5009987;28;20037;-72
2021/05/22 06:35:41;;;;;;;1.40;0.90;;;11.30;72.70;;;9.27;76.89;95487.13;4977242;28;20050;-70
2021/05/22 06:38:06;;;;;;;1.45;0.60;;;11.90;71.80;;;9.43;76.05;95490.22;5009073;28;20030;-70
2021/05/22 06:40:32;;;;;;;0.68;0.30;;;12.30;69.10;;;9.67;76.44;95490.72;4992400;28;20056;-71
2021/05/22 06:42:58;;;;;;;2.22;0.55;;;12.70;67.90;;;9.91;77.00;95491.97;4992583;28;20513;-70
2021/05/22 06:45:25;;;;;;;0.90;0.32;;;13.10;66.20;;;10.17;75.40;95486.75;5008862;28;20046;-70
2021/05/22 06:47:51;;;;;;;2.15;0.50;;;13.40;65.40;;;10.45;75.06;95483.97;5019602;28;20037;-68
2021/05/22 06:50:17;;;;;;;2.47;0.50;;;13.80;64.70;;;10.76;74.01;95499.13;5017051;28;20073;-69
2021/05/22 06:52:43;;;;;;;1.60;0.40;;;13.90;62.70;;;10.96;73.52;95484.09;5008989;28;20064;-69
2021/05/22 06:55:09;;;;;;;1.58;0.40;;;13.70;63.50;;;11.12;72.49;95479.41;5008449;28;20064;-68
2021/05/22 06:57:35;;;;;;;3.00;0.55;;;13.60;62.30;;;11.23;72.65;95491.94;5008469;28;20524;-70
2021/05/22 07:00:00;;;;;;;1.42;0.40;;;13.90;62.10;;;11.44;71.40;95489.00;4989959;28;20030;-66
2021/05/22 07:02:26;;;;;;;2.10;0.45;;;14.50;60.70;;;11.74;71.83;95493.72;4999421;28;20042;-67
2021/05/22 07:04:52;;;;;;;6.88;1.10;;;14.80;60.50;;;11.94;70.78;95494.47;5005259;28;20488;-70
2021/05/22 07:07:18;;;;;;;2.33;0.52;;;14.80;60.50;;;12.16;70.50;95489.66;4989301;28;20128;-70
2021/05/22 07:09:43;;;;;;;7.15;1.92;;;15.10;57.00;;;12.32;70.12;95517.34;5021760;28;20042;-70
2021/05/22 07:12:10;;;;;;;4.68;0.90;;;15.00;58.90;;;12.44;69.02;95500.59;5005881;28;20081;-70
2021/05/22 07:14:36;;;;;;;5.25;2.50;;;14.90;59.90;;;12.55;69.05;95507.03;5000961;28;20037;-72
2021/05/22 07:17:02;;;;;;;7.40;3.83;;;14.80;59.20;;;12.61;68.08;95518.53;4991329;28;20033;-70
2021/05/22 07:19:27;;;;;;;4.47;3.08;;;14.90;59.70;;;12.71;68.10;95514.41;4981223;28;20069;-71
2021/05/22 07:21:54;;;;;;;3.15;0.90;;;15.10;58.20;;;12.86;68.15;95521.97;4989290;28;20054;-69
2021/05/22 07:24:20;;;;;;;4.28;1.20;;;15.40;58.10;;;12.91;67.73;95516.88;4973615;28;20121;-71
2021/05/22 07:26:46;;;;;;;3.03;1.23;;;15.10;57.30;;;12.91;66.25;95508.16;4974774;28;20048;-70
2021/05/22 07:29:12;;;;;;;4.18;1.40;;;15.10;57.70;;;12.92;66.63;95513.22;5013247;28;20033;-70
2021/05/22 07:31:42;;;;;;;5.32;0.95;;;15.10;58.80;;;12.91;66.38;95521.34;5008538;28;20088;-70
2021/05/22 07:34:09;;;;;;;5.18;1.45;;;14.70;57.50;;;12.87;65.96;95519.13;5009129;28;20077;-70
2021/05/22 07:36:35;;;;;;;5.78;2.80;;;14.90;57.20;;;12.95;65.82;95511.97;4992804;28;20045;-71
2021/05/22 07:39:03;;;;;;;7.53;3.33;;;15.10;57.20;;;13.00;65.49;95510.28;5007415;28;20065;-71
2021/05/22 07:41:28;;;;;;;6.03;2.63;;;15.30;58.40;;;13.02;65.92;95502.13;4992746;28;20532;-70
2021/05/22 07:43:54;;;;;;;8.60;4.28;;;15.30;56.80;;;13.22;65.90;95492.22;5009063;28;20042;-71
2021/05/22 07:46:20;;;;;;;3.47;1.15;;;16.50;56.10;;;13.54;65.75;95500.78;5008964;28;20168;-70
2021/05/22 07:48:46;;;;;;;3.30;0.80;;;16.90;52.80;;;13.81;65.09;95487.25;5008766;28;20034;-71
2021/05/22 07:51:11;;;;;;;7.95;3.03;;;17.10;50.90;;;14.21;65.81;95496.22;4990022;28;20101;-70
2021/05/22 07:53:37;;;;;;;8.52;1.38;;;17.70;50.40;;;14.61;64.67;95488.50;5001357;28;20065;-72
2021/05/22 07:56:03;;;;;;;4.35;1.23;;;18.10;46.50;;;14.91;61.63;95477.00;5012830;28;20045;-70
2021/05/22 07:58:29;;;;;;;5.63;1.10;;;17.90;46.50;;;15.23;61.64;95477.44;5003956;28;20037;-68
2021/05/22 08:00:55;;;;;;;2.70;1.33;;;18.30;46.20;;;15.58;60.92;95480.00;4992707;28;20026;-70
2021/05/22 08:03:20;;;;;;;3.25;0.82;;;18.90;45.60;;;15.90;60.69;95475.91;5005773;28;20041;-69
2021/05/22 08:05:46;;;;;;;6.00;1.00;;;19.40;46.10;;;16.28;60.40;95485.03;5008119;28;20025;-69
2021/05/22 08:08:12;;;;;;;3.90;1.10;;;19.70;45.00;;;16.51;58.90;95479.59;5008938;28;20042;-69
2021/05/22 08:10:38;;;;;;;4.85;1.20;;;19.60;41.30;;;16.72;57.84;95486.06;5009304;28;20579;-71
2021/05/22 08:13:05;;;;;;;3.90;1.20;;;19.70;40.80;;;16.90;57.32;95486.84;5011125;28;20111;-68
2021/05/22 08:15:31;;;;;;;3.28;1.02;;;20.00;40.40;;;17.19;56.13;95490.19;4996002;28;20058;-65
2021/05/22 08:17:57;;;;;;;7.05;0.95;;;20.50;39.50;;;17.41;55.24;95477.72;4978913;28;20576;-69
2021/05/22 08:20:22;;;;;;;4.85;1.00;;;20.20;39.20;;;17.59;55.09;95473.97;5011531;28;20571;-69
2021/05/22 08:22:49;;;;;;;5.20;1.25;;;20.50;39.90;;;17.74;52.98;95471.53;5006159;28;20107;-69
2021/05/22 08:25:15;;;;;;;4.78;1.35;;;19.90;38.90;;;17.83;51.78;95474.53;5005638;28;20033;-70
2021/05/22 08:27:41;;;;;;;6.28;1.95;;;20.20;38.60;;;17.68;51.22;95483.97;5005225;28;20467;-69
2021/05/22 08:30:09;;;;;;;2.63;0.70;;;19.40;40.10;;;17.56;50.16;95485.09;4989082;28;20137;-70
2021/05/22 08:32:35;;;;;;;5.70;2.10;;;19.10;39.30;;;17.28;50.00;95480.75;5002112;28;20052;-70
2021/05/22 08:35:01;;;;;;;2.92;1.30;;;18.60;40.70;;;17.06;50.54;95486.03;5006570;28;20066;-69
2021/05/22 08:37:26;;;;;;;3.85;0.57;;;18.70;40.40;;;17.10;50.20;95485.31;4983913;28;20505;-68
2021/05/22 08:39:52;;;;;;;3.97;0.82;;;19.40;40.60;;;17.28;50.25;95483.41;4991916;28;20038;-69
2021/05/22 08:42:24;;;;;;;1.77;0.60;;;19.90;38.60;;;17.39;46.59;95485.16;4995126;28;20490;-69
2021/05/22 08:44:50;;;;;;;4.97;0.90;;;19.80;38.00;;;17.55;49.34;95494.13;4988260;28;20030;-68
2021/05/22 08:47:16;;;;;;;2.40;0.77;;;19.90;38.30;;;17.58;48.06;95491.78;5005838;28;20061;-69
2021/05/22 08:49:42;;;;;;;2.33;0.55;;;19.60;37.30;;;17.58;48.08;95489.13;4998851;28;20037;-70
2021/05/22 08:52:16;;;;;;;4.30;1.23;;;19.80;38.20;;;17.60;44.18;95486.19;4991660;28;20043;-71
2021/05/22 08:54:42;;;;;;;4.22;0.70;;;19.70;37.40;;;17.53;47.74;95480.28;5023477;28;20435;-71
2021/05/22 08:57:08;;;;;;;3.13;1.05;;;19.60;37.90;;;17.59;47.44;95490.72;5003674;28;20046;-70
2021/05/22 08:59:40;;;;;;;4.90;0.80;;;19.80;38.40;;;17.52;47.46;95489.31;4996922;28;20459;-70
2021/05/22 09:02:06;;;;;;;3.67;1.00;;;19.40;39.00;;;17.30;47.74;95486.63;5011306;28;20038;-70
2021/05/22 09:04:32;;;;;;;4.15;0.88;;;19.10;39.10;;;17.28;47.76;95484.22;4991058;28;20481;-72
2021/05/22 09:07:03;;;;;;;2.55;0.88;;;19.60;36.60;;;17.15;45.27;95490.69;4987733;28;20129;-71
2021/05/22 09:09:44;;;;;;;4.97;1.52;;;19.20;38.40;;;17.24;45.24;95493.75;4997084;28;20587;-72
2021/05/22 09:12:10;;;;;;;4.35;1.73;;;19.60;38.40;;;17.27;47.17;95503.06;5006689;28;20521;-69
2021/05/22 09:14:50;;;;;;;2.88;0.80;;;19.70;37.80;;;17.44;43.71;95493.22;5001941;28;20038;-70
2021/05/22 09:17:16;;;;;;;4.45;0.70;;;20.20;37.40;;;17.42;46.04;95495.28;4985724;28;20046;-69
2021/05/22 09:19:42;;;;;;;3.50;0.70;;;19.60;36.30;;;17.38;45.99;95487.00;4977198;28;20501;-74
2021/05/22 09:22:26;;;;;;;2.70;0.57;;;19.80;36.60;;;17.70;44.00;95495.16;5006961;28;20087;-67
2021/05/22 09:25:03;;;;;;;2.10;0.60;;;20.60;36.10;;;17.91;44.51;95484.75;4993801;28;20038;-68
2021/05/22 09:27:40;;;;;;;2.10;0.60;;;20.50;36.90;;;17.85;43.99;95491.84;5005952;28;20042;-70
2021/05/22 09:30:12;;;;;;;6.40;3.63;;;20.20;37.10;;;17.87;44.87;95486.28;4992955;28;20489;-65
2021/05/22 09:32:38;;;;;;;4.25;1.98;;;20.20;37.50;;;17.88;46.03;95490.53;5011376;28;20042;-66
2021/05/22 09:35:05;;;;;;;4.57;1.83;;;19.90;37.20;;;17.83;45.89;95488.63;5007319;28;20034;-65
2021/05/22 09:37:46;;;;;;;2.50;0.80;;;20.20;37.60;;;17.79;42.70;95492.84;4993751;28;20042;-70
2021/05/22 09:40:17;;;;;;;;;;;19.80;36.40;;;17.95;44.07;95504.47;5003687;28;20505;-69
2021/05/22 09:42:42;;;;;;;;;;;20.60;35.60;;;17.86;40.98;95492.66;5011325;28;19921;-70
2021/05/22 09:45:39;;;;;;;2.30;1.15;;;19.60;34.90;;;17.62;42.05;95495.53;4993323;28;19924;-72
2021/05/22 09:48:18;;;;;;;1.85;0.70;;;19.50;36.80;;;17.86;42.78;95497.97;4986274;28;20040;-71
2021/05/22 09:50:51;;;;;;;2.35;0.60;;;20.20;35.20;;;18.12;42.95;95489.22;4993219;28;20045;-70
2021/05/22 09:53:42;;;;;;;3.58;0.70;;;21.20;34.30;;;18.27;41.57;95491.22;4978022;28;20029;-67
2021/05/22 09:56:11;;;;;;;2.65;0.80;;;20.60;35.60;;;18.35;41.70;95494.25;4988241;28;20039;-69
2021/05/22 09:58:38;;;;;;;13.00;1.30;;;21.00;33.70;;;18.70;43.74;95500.97;5009513;28;20034;-74
2021/05/22 10:01:04;;;;;;;2.63;0.52;;;22.00;34.30;;;19.19;45.00;95490.91;5008232;28;20122;-74
2021/05/22 10:03:30;;;;;;;1.98;0.40;;;22.60;33.20;;;19.79;44.05;95491.50;5006440;28;20106;-75
2021/05/22 10:05:56;;;;;;;2.90;0.60;;;23.40;32.50;;;20.22;43.85;95489.50;4962301;28;20073;-74
2021/05/22 10:08:22;;;;;;;3.00;0.60;;;23.70;31.40;;;20.75;43.31;95486.34;5004084;28;20155;-73
2021/05/22 10:10:49;;;;;;;3.30;0.70;;;24.10;30.70;;;21.14;42.07;95485.78;5009329;28;20117;-72
2021/05/22 10:13:19;;;;;;;3.63;0.98;;;24.50;30.90;;;21.30;41.29;95500.78;4999030;28;20136;-72
2021/05/22 10:15:47;;;;;;;3.63;1.92;;;24.30;30.10;;;21.20;41.17;95500.75;4997498;28;20031;-72
2021/05/22 10:18:13;;;;;;;2.80;0.65;;;23.80;30.70;;;21.44;40.81;95484.94;5002941;28;20037;-71
2021/05/22 10:20:39;;;;;;;1.88;0.60;;;23.80;29.70;;;21.55;40.54;95491.06;5006840;28;20081;-73
2021/05/22 10:23:05;;;;;;;1.88;0.60;;;24.20;29.10;;;21.74;40.04;95488.59;5003465;28;20050;-72
2021/05/22 10:25:31;;;;;;;2.60;0.68;;;24.80;27.80;;;22.24;39.73;95484.91;4990135;28;20044;-71
2021/05/22 10:27:58;;;;;;;2.10;0.50;;;25.60;27.80;;;22.30;39.31;95486.47;4991549;28;20038;-70
2021/05/22 10:30:24;;;;;;;1.52;0.47;;;24.60;28.70;;;22.28;39.19;95483.25;5009237;28;20112;-70